Time;durP1;ratioP1;P1;durP2;ratioP2;P2;SDS_P1;SDS_P2;PMS_P1;PMS_P2;Temp;Humidity;BMP_temperature;BMP_pressure;BME280_temperature;BME280_humidity;BME280_pressure;Samples;Min_cycle;Max_cycle;Signal;HPM_P1;HPM_P2
2021/06/06 00:01:41;;;;;;;19.77;10.20;;;16.70;99.60;;;;;;5032882;28;20672;-77
2021/06/06 00:04:14;;;;;;;17.43;10.10;;;16.70;98.80;;;;;;5032361;28;20295;-78
2021/06/06 00:06:40;;;;;;;18.07;9.53;;;16.70;99.20;;;;;;5029621;28;20447;-76
2021/06/06 00:09:12;;;;;;;15.30;8.70;;;16.70;98.80;;;;;;5031816;28;20520;-77
2021/06/06 00:11:47;;;;;;;19.87;10.33;;;16.70;99.00;;;;;;5033680;28;20469;-77
2021/06/06 00:14:18;;;;;;;15.50;8.27;;;16.70;98.80;;;;;;5032348;28;20426;-77
2021/06/06 00:16:48;;;;;;;13.90;8.57;;;16.60;98.80;;;;;;5032227;28;20439;-77
2021/06/06 00:19:15;;;;;;;18.57;9.00;;;16.60;99.00;;;;;;5033196;28;20436;-76
2021/06/06 00:21:42;;;;;;;15.17;8.57;;;16.60;99.20;;;;;;5032151;28;20423;-76
2021/06/06 00:24:11;;;;;;;18.00;9.00;;;16.60;99.50;;;;;;5032172;28;20449;-78
2021/06/06 00:26:37;;;;;;;16.83;9.50;;;16.60;99.30;;;;;;5032849;28;20440;-78
2021/06/06 00:29:04;;;;;;;14.63;8.70;;;16.50;99.60;;;;;;5033158;28;20427;-77
2021/06/06 00:31:30;;;;;;;14.67;8.90;;;16.50;99.40;;;;;;5030434;28;20428;-76
2021/06/06 00:33:56;;;;;;;16.93;8.40;;;16.50;99.30;;;;;;5031719;28;20886;-76
2021/06/06 00:36:23;;;;;;;19.97;9.20;;;16.50;99.40;;;;;;5033259;28;20433;-77
2021/06/06 00:38:49;;;;;;;14.50;8.60;;;16.50;99.00;;;;;;5031410;28;20424;-76
2021/06/06 00:41:17;;;;;;;14.33;8.43;;;16.60;99.20;;;;;;5030872;28;20443;-77
2021/06/06 00:43:43;;;;;;;15.97;9.13;;;16.60;99.30;;;;;;5032091;28;20442;-77
2021/06/06 00:46:09;;;;;;;18.13;9.07;;;16.60;99.30;;;;;;5032844;28;20864;-76
2021/06/06 00:48:35;;;;;;;16.00;8.00;;;16.60;98.80;;;;;;5032384;28;20223;-76
2021/06/06 00:51:11;;;;;;;16.33;8.67;;;16.60;98.40;;;;;;5031916;28;20434;-77
2021/06/06 00:53:44;;;;;;;14.47;8.80;;;16.50;98.70;;;;;;5031868;28;20492;-75
2021/06/06 00:56:14;;;;;;;15.40;8.13;;;16.50;99.00;;;;;;5032591;28;20410;-76
2021/06/06 00:58:42;;;;;;;14.43;7.97;;;16.60;99.30;;;;;;5032723;28;20508;-77
2021/06/06 01:01:11;;;;;;;16.33;8.93;;;16.70;99.20;;;;;;5030433;28;20932;-77
2021/06/06 01:03:36;;;;;;;17.50;9.23;;;16.60;98.80;;;;;;5025017;28;20832;-76
2021/06/06 01:06:12;;;;;;;16.40;8.63;;;16.60;98.80;;;;;;5032943;28;20494;-77
2021/06/06 01:08:39;;;;;;;13.60;8.43;;;16.60;99.00;;;;;;5031646;28;20687;-76
2021/06/06 01:11:24;;;;;;;15.23;8.60;;;16.50;99.40;;;;;;5028239;28;20428;-76
2021/06/06 01:13:59;;;;;;;12.93;6.97;;;16.60;99.50;;;;;;5040097;28;20426;-76
2021/06/06 01:16:59;;;;;;;14.50;7.87;;;16.50;99.00;;;;;;5035516;28;20437;-76
2021/06/06 01:19:44;;;;;;;11.23;7.30;;;16.50;99.00;;;;;;5029816;28;20503;-78
2021/06/06 01:22:24;;;;;;;13.17;7.40;;;16.40;99.10;;;;;;5023367;28;20985;-76
2021/06/06 01:25:26;;;;;;;10.90;6.93;;;16.40;98.90;;;;;;5033816;28;20457;-77
2021/06/06 01:27:59;;;;;;;11.27;5.90;;;16.40;98.80;;;;;;5033111;28;20428;-77
2021/06/06 01:30:29;;;;;;;13.17;7.17;;;16.40;98.90;;;;;;5033801;28;20417;-77
2021/06/06 01:33:04;;;;;;;11.77;6.67;;;16.40;98.90;;;;;;5031622;28;20476;-77
2021/06/06 01:35:36;;;;;;;11.77;6.70;;;16.40;99.00;;;;;;5031066;28;20427;-77
2021/06/06 01:38:19;;;;;;;13.80;7.60;;;16.50;98.90;;;;;;5025668;28;20429;-77
2021/06/06 01:40:48;;;;;;;12.33;7.00;;;16.50;98.90;;;;;;5031120;28;20778;-77
2021/06/06 01:43:19;;;;;;;14.50;6.33;;;16.50;99.00;;;;;;5031209;28;20424;-76
2021/06/06 01:45:54;;;;;;;11.57;6.33;;;16.50;99.00;;;;;;5031310;28;20417;-76
2021/06/06 01:48:20;;;;;;;12.13;6.80;;;16.50;98.40;;;;;;5031257;28;20495;-76
2021/06/06 01:51:06;;;;;;;11.87;6.57;;;16.50;98.50;;;;;;5031268;28;21060;-77
2021/06/06 01:53:35;;;;;;;12.93;6.30;;;16.40;98.50;;;;;;5030184;28;20885;-76
2021/06/06 01:56:04;;;;;;;12.70;6.63;;;16.40;98.80;;;;;;5031769;28;20420;-77
2021/06/06 01:58:30;;;;;;;9.90;5.70;;;16.40;98.80;;;;;;5021680;28;20414;-77
2021/06/06 02:01:09;;;;;;;13.17;6.60;;;16.40;98.80;;;;;;5031553;28;20415;-76
2021/06/06 02:03:36;;;;;;;11.90;6.10;;;16.40;98.90;;;;;;5031186;28;20436;-77
2021/06/06 02:06:03;;;;;;;13.10;6.83;;;16.40;99.00;;;;;;5032089;28;20493;-77
2021/06/06 02:08:33;;;;;;;17.00;7.07;;;16.40;99.00;;;;;;5030917;28;20420;-76
2021/06/06 02:11:08;;;;;;;14.07;7.00;;;16.30;99.00;;;;;;5031416;28;20806;-75
2021/06/06 02:13:43;;;;;;;11.93;6.30;;;16.30;99.30;;;;;;5036599;28;20466;-76
2021/06/06 02:16:10;;;;;;;9.20;6.07;;;16.30;99.20;;;;;;5041667;28;20419;-77
2021/06/06 02:18:36;;;;;;;9.27;5.60;;;16.20;99.10;;;;;;5036567;28;20428;-77
2021/06/06 02:21:02;;;;;;;12.70;6.70;;;16.20;99.20;;;;;;5038154;28;20505;-75
2021/06/06 02:23:31;;;;;;;9.53;5.77;;;16.20;99.20;;;;;;5043842;28;20215;-77
2021/06/06 02:26:06;;;;;;;11.47;6.17;;;16.20;99.30;;;;;;5043310;28;20505;-77
2021/06/06 02:29:05;;;;;;;14.73;6.67;;;16.20;99.40;;;;;;5032546;28;20435;-75
2021/06/06 02:31:55;;;;;;;10.70;6.10;;;16.20;99.50;;;;;;5026374;28;20421;-77
2021/06/06 02:34:38;;;;;;;10.47;5.97;;;16.20;99.30;;;;;;5025308;28;20415;-77
2021/06/06 02:37:13;;;;;;;10.93;6.63;;;16.30;99.30;;;;;;5030523;28;20450;-76
2021/06/06 02:39:43;;;;;;;11.10;6.13;;;16.30;99.10;;;;;;5030478;28;20405;-75
2021/06/06 02:42:20;;;;;;;10.83;6.73;;;16.20;98.90;;;;;;5028520;28;20478;-75
2021/06/06 02:45:01;;;;;;;10.23;6.27;;;16.20;99.00;;;;;;5030289;28;20412;-77
2021/06/06 02:47:32;;;;;;;10.90;6.37;;;16.20;99.10;;;;;;5027051;28;20531;-77
2021/06/06 02:50:03;;;;;;;11.27;6.73;;;16.20;99.20;;;;;;5030784;28;20417;-77
2021/06/06 02:52:44;;;;;;;10.97;6.07;;;16.30;99.00;;;;;;5028532;28;20468;-77
2021/06/06 02:55:23;;;;;;;11.33;5.57;;;16.30;98.80;;;;;;5030750;28;20914;-76
2021/06/06 02:58:01;;;;;;;11.87;5.40;;;16.30;98.60;;;;;;5029906;28;20420;-77
2021/06/06 03:00:37;;;;;;;10.03;5.23;;;16.30;98.60;;;;;;5034466;28;20416;-77
2021/06/06 03:03:13;;;;;;;12.60;5.83;;;16.40;98.50;;;;;;5034417;28;20441;-77
2021/06/06 03:05:39;;;;;;;12.70;5.07;;;16.30;98.30;;;;;;5033317;28;20933;-77
2021/06/06 03:08:08;;;;;;;10.00;5.07;;;16.30;98.40;;;;;;5033136;28;20416;-76
2021/06/06 03:10:36;;;;;;;10.87;5.63;;;16.30;98.40;;;;;;5034637;28;20419;-77
2021/06/06 03:13:08;;;;;;;9.30;5.50;;;16.30;98.60;;;;;;5034411;28;21004;-77
2021/06/06 03:15:39;;;;;;;9.17;4.87;;;16.40;98.40;;;;;;5039890;28;20439;-76
2021/06/06 03:18:07;;;;;;;12.10;6.17;;;16.40;98.60;;;;;;5030504;28;20419;-76
2021/06/06 03:20:40;;;;;;;9.20;5.47;;;16.30;98.50;;;;;;5032133;28;20427;-75
2021/06/06 03:23:08;;;;;;;10.17;6.27;;;16.30;98.60;;;;;;5033214;28;20609;-77
2021/06/06 03:25:57;;;;;;;12.30;5.60;;;16.40;98.30;;;;;;5033645;28;20510;-76
2021/06/06 03:28:30;;;;;;;13.60;6.17;;;16.30;98.30;;;;;;5036644;28;20431;-76
2021/06/06 03:31:03;;;;;;;14.10;6.33;;;16.40;98.50;;;;;;5044796;28;20419;-77
2021/06/06 03:33:46;;;;;;;10.60;6.60;;;16.40;98.20;;;;;;5048177;28;20480;-75
2021/06/06 03:36:16;;;;;;;11.37;5.27;;;16.40;98.10;;;;;;5055458;28;20414;-76
2021/06/06 03:38:42;;;;;;;12.30;5.97;;;16.30;98.20;;;;;;5042757;28;20500;-78
2021/06/06 03:41:09;;;;;;;20.00;6.20;;;16.30;98.10;;;;;;5034826;28;20420;-78
2021/06/06 03:43:35;;;;;;;11.73;6.60;;;16.30;98.40;;;;;;5034463;28;20981;-77
2021/06/06 03:46:02;;;;;;;12.97;6.33;;;16.30;98.30;;;;;;5032898;28;20420;-78
2021/06/06 03:48:27;;;;;;;16.83;7.03;;;16.30;98.50;;;;;;5033812;28;20434;-79
2021/06/06 03:50:54;;;;;;;11.97;6.10;;;16.30;98.50;;;;;;5032572;28;21168;-76
2021/06/06 03:53:24;;;;;;;16.43;6.87;;;16.40;98.00;;;;;;5033250;28;20228;-77
2021/06/06 03:55:50;;;;;;;13.60;5.73;;;16.40;98.00;;;;;;5034854;28;20412;-77
2021/06/06 03:58:17;;;;;;;16.30;7.53;;;16.40;97.80;;;;;;5034958;28;20420;-77
2021/06/06 04:00:47;;;;;;;16.80;6.97;;;16.30;97.90;;;;;;5033493;28;20239;-76
2021/06/06 04:03:14;;;;;;;12.77;7.13;;;16.20;98.10;;;;;;5033602;28;20450;-76
2021/06/06 04:05:40;;;;;;;16.23;7.17;;;16.20;98.10;;;;;;5035936;28;20435;-76
2021/06/06 04:08:07;;;;;;;12.13;6.67;;;16.20;97.80;;;;;;5034415;28;20416;-77
2021/06/06 04:10:35;;;;;;;10.00;5.30;;;16.30;97.80;;;;;;5032737;28;20416;-76
2021/06/06 04:13:01;;;;;;;12.90;6.53;;;16.30;97.50;;;;;;5033570;28;20469;-77
2021/06/06 04:15:27;;;;;;;13.70;5.87;;;16.20;97.50;;;;;;5034777;28;20416;-77
2021/06/06 04:17:53;;;;;;;10.37;5.80;;;16.10;97.90;;;;;;5034414;28;20920;-78
2021/06/06 04:20:20;;;;;;;8.10;5.00;;;16.10;98.10;;;;;;5033452;28;20447;-78
2021/06/06 04:22:46;;;;;;;10.77;5.17;;;16.20;98.00;;;;;;5032025;28;20632;-78
2021/06/06 04:25:18;;;;;;;11.63;5.57;;;16.20;97.90;;;;;;5034905;28;20422;-78
2021/06/06 04:27:43;;;;;;;14.40;5.80;;;16.20;97.80;;;;;;5033222;28;20185;-77
2021/06/06 04:30:11;;;;;;;11.20;5.37;;;16.10;97.70;;;;;;5034663;28;20439;-77
2021/06/06 04:32:37;;;;;;;10.90;5.53;;;16.10;98.00;;;;;;5032272;28;20215;-76
2021/06/06 04:35:04;;;;;;;12.80;5.53;;;16.20;98.00;;;;;;5034195;28;20415;-77
2021/06/06 04:37:30;;;;;;;12.90;5.70;;;16.20;97.70;;;;;;5033922;28;20422;-77
2021/06/06 04:39:55;;;;;;;14.90;6.60;;;16.30;97.80;;;;;;5032708;28;20426;-77
2021/06/06 04:42:21;;;;;;;10.90;4.73;;;16.20;97.50;;;;;;5033681;28;20197;-77
2021/06/06 04:44:49;;;;;;;13.50;6.10;;;16.20;97.60;;;;;;5034330;28;20738;-76
2021/06/06 04:47:16;;;;;;;10.43;5.53;;;16.00;97.50;;;;;;5033997;28;20478;-77
2021/06/06 04:49:44;;;;;;;12.43;5.90;;;16.10;97.80;;;;;;5034151;28;20445;-78
2021/06/06 04:52:12;;;;;;;9.33;5.03;;;16.20;97.70;;;;;;5032197;28;20491;-77
2021/06/06 04:54:38;;;;;;;11.03;5.90;;;16.20;97.70;;;;;;5032761;28;21161;-78
2021/06/06 04:57:07;;;;;;;10.57;5.80;;;16.20;97.70;;;;;;5032650;28;20414;-77
2021/06/06 04:59:35;;;;;;;14.17;6.10;;;16.30;97.70;;;;;;5030490;28;20427;-78
2021/06/06 05:02:06;;;;;;;11.47;5.10;;;16.20;97.90;;;;;;5033453;28;20508;-78
2021/06/06 05:04:35;;;;;;;11.97;6.00;;;16.20;98.10;;;;;;5034130;28;20416;-76
2021/06/06 05:07:01;;;;;;;17.63;5.80;;;16.10;98.10;;;;;;5032566;28;20443;-78
2021/06/06 05:09:27;;;;;;;9.67;4.70;;;16.20;98.00;;;;;;5033909;28;20452;-78
2021/06/06 05:11:53;;;;;;;13.90;6.37;;;16.30;97.80;;;;;;5032876;28;20467;-78
2021/06/06 05:14:19;;;;;;;13.43;6.10;;;16.10;97.60;;;;;;5033530;28;20421;-78
2021/06/06 05:16:45;;;;;;;10.50;5.60;;;16.10;97.70;;;;;;5033775;28;20785;-77
2021/06/06 05:19:11;;;;;;;12.43;6.03;;;16.10;98.00;;;;;;5034230;28;20421;-77
2021/06/06 05:21:38;;;;;;;15.90;6.10;;;16.00;97.70;;;;;;5032174;28;20543;-78
2021/06/06 05:24:04;;;;;;;15.63;6.23;;;16.00;98.10;;;;;;5032544;28;20471;-77
2021/06/06 05:26:30;;;;;;;13.83;6.70;;;16.10;98.20;;;;;;5034324;28;20416;-79
2021/06/06 05:28:56;;;;;;;16.40;5.53;;;16.10;98.20;;;;;;5033996;28;20408;-78
2021/06/06 05:31:22;;;;;;;12.47;5.53;;;16.10;98.00;;;;;;5031991;28;20177;-79
2021/06/06 05:33:48;;;;;;;15.30;6.07;;;16.10;98.00;;;;;;5033333;28;20219;-78
2021/06/06 05:36:15;;;;;;;11.57;5.90;;;16.00;98.10;;;;;;5032687;28;20512;-77
2021/06/06 05:38:42;;;;;;;14.53;6.80;;;16.10;98.20;;;;;;5031848;28;20793;-77
2021/06/06 05:41:09;;;;;;;13.20;7.00;;;16.20;98.00;;;;;;5030852;28;20776;-76
2021/06/06 05:43:35;;;;;;;13.30;6.37;;;16.20;97.70;;;;;;5031361;28;20452;-78
2021/06/06 05:46:00;;;;;;;11.87;5.50;;;16.30;97.60;;;;;;5032962;28;20778;-78
2021/06/06 05:48:27;;;;;;;14.00;7.03;;;16.30;97.70;;;;;;5031952;28;20978;-77
2021/06/06 05:50:56;;;;;;;12.67;6.80;;;16.30;97.40;;;;;;5032053;28;20926;-78
2021/06/06 05:53:22;;;;;;;13.87;7.27;;;16.20;97.20;;;;;;5031709;28;20460;-76
2021/06/06 05:55:49;;;;;;;12.40;6.20;;;16.30;97.40;;;;;;5032749;28;20470;-78
2021/06/06 05:58:16;;;;;;;12.40;7.60;;;16.40;97.50;;;;;;5034508;28;20465;-77
2021/06/06 06:00:45;;;;;;;11.57;6.70;;;16.20;97.20;;;;;;5031707;28;20944;-76
2021/06/06 06:03:11;;;;;;;16.50;7.50;;;16.20;97.60;;;;;;5035123;28;20467;-77
2021/06/06 06:05:38;;;;;;;15.67;7.47;;;16.20;97.60;;;;;;5035834;28;20495;-76
2021/06/06 06:08:19;;;;;;;15.80;8.23;;;16.00;97.90;;;;;;5036300;28;20420;-78
2021/06/06 06:10:45;;;;;;;15.13;7.60;;;15.90;98.30;;;;;;5035877;28;20425;-78
2021/06/06 06:13:11;;;;;;;17.23;7.87;;;15.90;98.60;;;;;;5035393;28;20489;-76
2021/06/06 06:15:37;;;;;;;16.97;7.93;;;16.00;98.70;;;;;;5042945;28;20436;-78
2021/06/06 06:18:03;;;;;;;18.30;8.67;;;16.10;98.50;;;;;;5043704;28;20413;-78
2021/06/06 06:20:29;;;;;;;17.20;8.30;;;16.20;98.20;;;;;;5037500;28;20169;-77
2021/06/06 06:22:55;;;;;;;18.60;8.63;;;16.00;98.10;;;;;;5033462;28;20593;-77
2021/06/06 06:25:21;;;;;;;15.80;8.50;;;16.00;98.50;;;;;;5035194;28;20188;-77
2021/06/06 06:27:47;;;;;;;15.87;8.07;;;15.90;98.70;;;;;;5033055;28;20647;-77
2021/06/06 06:30:17;;;;;;;12.60;7.00;;;16.00;98.90;;;;;;5043370;28;20213;-77
2021/06/06 06:32:43;;;;;;;17.97;8.50;;;16.00;98.80;;;;;;5045529;28;20494;-77
2021/06/06 06:35:09;;;;;;;17.83;8.57;;;16.10;98.60;;;;;;5037324;28;20414;-77
2021/06/06 06:37:36;;;;;;;16.93;7.43;;;16.10;98.70;;;;;;5034890;28;20412;-78
2021/06/06 06:40:04;;;;;;;16.17;9.17;;;16.00;98.90;;;;;;5035046;28;20439;-77
2021/06/06 06:42:29;;;;;;;20.63;9.60;;;15.80;99.20;;;;;;5033640;28;20518;-78
2021/06/06 06:44:55;;;;;;;17.07;8.73;;;15.90;99.40;;;;;;5034092;28;20461;-77
2021/06/06 06:47:21;;;;;;;19.73;8.33;;;15.80;99.50;;;;;;5035660;28;20181;-77
2021/06/06 06:49:47;;;;;;;19.53;9.23;;;15.90;99.60;;;;;;5032481;28;20181;-78
2021/06/06 06:52:13;;;;;;;18.90;8.70;;;16.00;99.20;;;;;;5032161;28;20208;-78
2021/06/06 06:54:39;;;;;;;20.80;10.10;;;16.00;99.20;;;;;;5031870;28;20215;-78
2021/06/06 06:57:05;;;;;;;22.37;11.13;;;16.00;99.00;;;;;;5031785;28;20228;-77
2021/06/06 06:59:31;;;;;;;17.47;9.33;;;16.10;99.10;;;;;;5031865;28;20451;-77
2021/06/06 07:01:58;;;;;;;16.87;9.20;;;16.10;99.00;;;;;;5031168;28;20886;-78
2021/06/06 07:04:24;;;;;;;14.50;8.53;;;15.90;99.00;;;;;;5031392;28;20181;-77
2021/06/06 07:06:54;;;;;;;15.60;8.73;;;15.90;99.40;;;;;;5031783;28;20423;-77
2021/06/06 07:09:21;;;;;;;20.27;8.37;;;15.90;99.60;;;;;;5030102;28;20511;-77
2021/06/06 07:11:47;;;;;;;18.27;9.50;;;16.10;99.50;;;;;;5029575;28;20508;-77
2021/06/06 07:14:13;;;;;;;14.30;8.40;;;16.00;99.20;;;;;;5031735;28;20424;-76
2021/06/06 07:16:39;;;;;;;14.53;8.47;;;16.10;99.10;;;;;;5023373;28;20428;-76
2021/06/06 07:19:06;;;;;;;20.53;11.40;;;16.00;98.80;;;;;;5028577;28;20292;-79
2021/06/06 07:21:33;;;;;;;18.80;9.90;;;16.10;99.10;;;;;;5031307;28;20479;-78
2021/06/06 07:23:59;;;;;;;19.43;9.37;;;15.90;99.00;;;;;;5031905;28;20437;-79
2021/06/06 07:26:47;;;;;;;17.30;8.20;;;16.00;99.30;;;;;;5030696;28;21000;-79
2021/06/06 07:29:15;;;;;;;18.83;9.00;;;16.00;99.30;;;;;;5030007;28;20308;-78
2021/06/06 07:31:43;;;;;;;17.23;8.63;;;15.90;99.20;;;;;;5031050;28;20823;-78
2021/06/06 07:34:09;;;;;;;15.13;8.80;;;16.00;99.50;;;;;;5031203;28;20975;-78
2021/06/06 07:36:35;;;;;;;18.00;9.60;;;16.00;99.30;;;;;;5029961;28;20416;-77
2021/06/06 07:39:01;;;;;;;18.30;9.00;;;16.00;99.40;;;;;;5031003;28;20479;-78
2021/06/06 07:41:27;;;;;;;18.63;9.50;;;16.00;99.20;;;;;;5030208;28;20268;-76
2021/06/06 07:43:56;;;;;;;17.73;10.20;;;15.80;99.60;;;;;;5031168;28;20519;-77
2021/06/06 07:46:22;;;;;;;15.80;8.33;;;15.80;99.80;;;;;;5034958;28;20182;-77
2021/06/06 07:48:48;;;;;;;16.73;9.60;;;15.80;99.90;;;;;;5035022;28;20520;-79
2021/06/06 07:51:14;;;;;;;18.30;9.47;;;15.90;99.90;;;;;;5035667;28;20423;-78
2021/06/06 07:53:40;;;;;;;23.50;10.10;;;16.00;99.90;;;;;;5035098;28;20346;-78
2021/06/06 07:56:06;;;;;;;23.20;10.30;;;16.10;99.60;;;;;;5034514;28;20459;-77
2021/06/06 07:58:34;;;;;;;21.20;10.97;;;16.20;99.30;;;;;;5033614;28;20652;-79
2021/06/06 08:01:01;;;;;;;25.17;11.90;;;16.00;99.20;;;;;;5031580;28;20424;-76
2021/06/06 08:03:29;;;;;;;20.90;10.90;;;15.90;99.70;;;;;;5029008;28;20501;-75
2021/06/06 08:05:56;;;;;;;18.07;9.90;;;16.00;99.90;;;;;;5029622;28;20427;-75
2021/06/06 08:08:22;;;;;;;22.13;12.17;;;16.10;99.90;;;;;;5030336;28;20928;-76
2021/06/06 08:10:51;;;;;;;23.70;11.63;;;16.00;99.60;;;;;;5028870;28;20448;-74
2021/06/06 08:13:17;;;;;;;21.40;9.93;;;15.90;99.80;;;;;;5029955;28;20474;-75
2021/06/06 08:15:43;;;;;;;19.57;9.47;;;15.90;99.90;;;;;;5028763;28;21050;-76
2021/06/06 08:18:12;;;;;;;18.33;10.20;;;16.00;99.90;;;;;;5031453;28;20416;-75
2021/06/06 08:20:46;;;;;;;22.23;11.23;;;15.90;99.90;;;;;;5029784;28;20468;-75
2021/06/06 08:23:12;;;;;;;20.47;9.97;;;16.00;99.90;;;;;;5021588;28;20516;-75
2021/06/06 08:25:38;;;;;;;24.40;11.07;;;16.00;99.90;;;;;;5030858;28;20453;-75
2021/06/06 08:28:06;;;;;;;22.67;9.97;;;15.90;99.90;;;;;;5031270;28;20826;-74
2021/06/06 08:30:57;;;;;;;22.03;10.87;;;15.80;99.90;;;;;;5030491;28;20424;-77
2021/06/06 08:33:26;;;;;;;22.93;10.90;;;15.80;99.90;;;;;;5030285;28;20483;-76
2021/06/06 08:35:55;;;;;;;21.70;9.57;;;15.90;99.90;;;;;;5029590;28;20934;-74
2021/06/06 08:38:22;;;;;;;28.30;14.10;;;15.90;99.90;;;;;;5031515;28;20445;-74
2021/06/06 08:41:05;;;;;;;25.50;10.90;;;15.90;99.90;;;;;;5028413;28;20462;-73
2021/06/06 08:43:44;;;;;;;22.93;11.60;;;15.90;99.90;;;;;;5031655;28;21278;-75
2021/06/06 08:46:11;;;;;;;20.90;10.30;;;16.00;99.90;;;;;;5031917;28;20442;-73
2021/06/06 08:48:37;;;;;;;27.67;11.63;;;16.00;99.90;;;;;;5032028;28;20515;-74
2021/06/06 08:51:24;;;;;;;18.37;10.33;;;16.10;99.90;;;;;;5031440;28;20419;-73
2021/06/06 08:54:09;;;;;;;20.90;10.23;;;16.10;99.90;;;;;;5032008;28;20256;-73
2021/06/06 08:56:37;;;;;;;25.00;11.33;;;16.40;99.90;;;;;;5031371;28;20424;-73
2021/06/06 08:59:08;;;;;;;23.33;12.53;;;16.40;99.20;;;;;;5034883;28;20416;-74
2021/06/06 09:01:39;;;;;;;22.80;12.70;;;16.40;99.20;;;;;;5036308;28;20432;-72
2021/06/06 09:04:17;;;;;;;29.57;12.27;;;16.40;99.00;;;;;;5037898;28;20497;-74
2021/06/06 09:06:52;;;;;;;25.50;10.43;;;16.20;99.10;;;;;;5034195;28;20420;-74
2021/06/06 09:09:21;;;;;;;26.87;10.80;;;16.30;99.20;;;;;;5030788;28;20815;-73
2021/06/06 09:11:46;;;;;;;23.60;10.97;;;16.40;99.10;;;;;;5029873;28;20480;-75
2021/06/06 09:14:12;;;;;;;28.53;12.10;;;16.40;98.90;;;;;;5031567;28;20446;-74
2021/06/06 09:16:58;;;;;;;22.97;11.13;;;16.40;98.80;;;;;;5031827;28;20253;-75
2021/06/06 09:19:25;;;;;;;27.53;12.60;;;16.40;98.60;;;;;;5031449;28;20183;-74
2021/06/06 09:21:58;;;;;;;29.00;12.60;;;16.40;98.50;;;;;;5032170;28;20922;-73
2021/06/06 09:24:42;;;;;;;25.30;12.17;;;16.40;98.80;;;;;;5031208;28;20522;-74
2021/06/06 09:27:18;;;;;;;27.37;12.17;;;16.40;98.70;;;;;;5032781;28;20415;-74
2021/06/06 09:29:45;;;;;;;26.47;12.77;;;16.50;98.60;;;;;;5032699;28;20420;-74
2021/06/06 09:32:21;;;;;;;30.37;11.97;;;16.40;98.20;;;;;;5030711;28;20566;-74
2021/06/06 09:35:05;;;;;;;32.30;14.63;;;16.40;98.30;;;;;;5030527;28;20426;-76
2021/06/06 09:37:35;;;;;;;33.87;14.87;;;16.30;98.40;;;;;;5026693;28;20978;-74
2021/06/06 09:40:13;;;;;;;30.30;11.80;;;16.10;99.00;;;;;;5021752;28;20420;-75
2021/06/06 09:42:44;;;;;;;28.83;12.50;;;16.30;99.10;;;;;;5027766;28;20456;-74
2021/06/06 09:45:24;;;;;;;28.63;12.80;;;16.30;98.70;;;;;;5028802;28;20432;-74
2021/06/06 09:48:16;;;;;;;27.40;15.40;;;16.30;98.80;;;;;;5027779;28;20455;-74
2021/06/06 09:50:45;;;;;;;31.47;13.73;;;16.30;98.70;;;;;;5027381;28;20424;-74
2021/06/06 09:53:24;;;;;;;24.03;13.40;;;16.10;99.10;;;;;;5030450;28;20469;-74
2021/06/06 09:55:50;;;;;;;25.57;12.83;;;16.30;99.30;;;;;;5031876;28;20467;-75
2021/06/06 09:58:24;;;;;;;33.80;16.77;;;16.30;99.10;;;;;;5033061;28;20446;-74
2021/06/06 10:00:57;;;;;;;33.93;17.20;;;16.30;98.90;;;;;;5036108;28;20425;-74
2021/06/06 10:03:40;;;;;;;47.70;19.30;;;16.30;99.20;;;;;;5038068;28;20483;-75
2021/06/06 10:06:25;;;;;;;45.00;19.93;;;16.30;99.00;;;;;;5035782;28;20420;-74
2021/06/06 10:09:22;;;;;;;46.00;20.93;;;16.30;99.00;;;;;;5037683;28;20427;-73
2021/06/06 10:11:51;;;;;;;42.27;19.20;;;16.40;98.80;;;;;;5034276;28;20453;-74
2021/06/06 10:14:27;;;;;;;47.60;19.87;;;16.40;98.60;;;;;;5029069;28;20434;-74
2021/06/06 10:16:55;;;;;;;38.97;19.33;;;16.40;98.50;;;;;;5026405;28;20439;-75
2021/06/06 10:19:27;;;;;;;39.73;19.80;;;16.50;98.50;;;;;;5026629;28;20429;-73
2021/06/06 10:21:59;;;;;;;46.13;20.37;;;16.50;98.40;;;;;;5026594;28;20554;-74
2021/06/06 10:24:37;;;;;;;44.37;23.00;;;16.60;98.40;;;;;;5027097;28;20518;-74
2021/06/06 10:27:23;;;;;;;47.47;23.10;;;16.40;98.20;;;;;;5027425;28;20408;-73
2021/06/06 10:30:00;;;;;;;43.70;18.73;;;16.40;98.50;;;;;;5027885;28;20489;-73
2021/06/06 10:32:33;;;;;;;51.97;22.30;;;16.40;98.60;;;;;;5026488;28;20471;-73
2021/06/06 10:35:09;;;;;;;48.33;20.97;;;16.70;98.80;;;;;;5020399;28;20470;-74
2021/06/06 10:37:35;;;;;;;54.30;24.63;;;16.80;98.20;;;;;;5023967;28;20927;-73
2021/06/06 10:40:15;;;;;;;49.73;23.10;;;16.50;97.80;;;;;;5024074;28;20439;-73
2021/06/06 10:42:51;;;;;;;54.13;26.27;;;16.50;98.50;;;;;;5026042;28;20448;-72
2021/06/06 10:45:25;;;;;;;56.00;26.63;;;16.20;98.90;;;;;;5027465;28;20800;-72
2021/06/06 10:48:12;;;;;;;51.27;25.37;;;16.10;99.50;;;;;;5025522;28;20954;-73
2021/06/06 10:50:43;;;;;;;55.17;25.00;;;16.10;99.90;;;;;;5024588;28;20495;-73
2021/06/06 10:53:26;;;;;;;60.97;27.00;;;16.20;99.90;;;;;;5026923;28;20475;-73
2021/06/06 10:56:12;;;;;;;58.53;24.23;;;16.30;99.50;;;;;;5027009;28;20431;-76
2021/06/06 10:58:49;;;;;;;53.87;25.83;;;16.40;99.40;;;;;;5025034;28;20455;-76
2021/06/06 11:01:17;;;;;;;64.20;27.70;;;16.30;99.40;;;;;;5024957;28;20422;-77
2021/06/06 11:03:50;;;;;;;60.70;27.63;;;16.40;99.30;;;;;;5027576;28;20858;-76
2021/06/06 11:06:33;;;;;;;65.50;26.43;;;16.40;99.10;;;;;;5027826;28;20532;-78
2021/06/06 11:08:59;;;;;;;72.33;27.90;;;16.50;99.30;;;;;;5018563;28;20966;-75
2021/06/06 11:11:32;;;;;;;66.27;28.13;;;16.50;98.90;;;;;;5026492;28;20428;-78
2021/06/06 11:14:09;;;;;;;69.27;32.73;;;16.40;99.20;;;;;;5021318;28;20272;-77
2021/06/06 11:16:37;;;;;;;72.80;31.00;;;16.30;99.40;;;;;;5025004;28;20451;-77
2021/06/06 11:19:30;;;;;;;72.67;33.60;;;16.40;99.50;;;;;;5027903;28;20426;-77
2021/06/06 11:21:56;;;;;;;73.40;29.17;;;16.30;99.20;;;;;;5020182;28;21354;-78
2021/06/06 11:24:40;;;;;;;69.23;32.03;;;16.40;99.50;;;;;;5031268;28;20438;-78
2021/06/06 11:27:17;;;;;;;62.33;28.27;;;16.50;99.30;;;;;;5032358;28;20222;-77
2021/06/06 11:29:49;;;;;;;70.60;30.97;;;16.80;99.20;;;;;;5031908;28;20436;-78
2021/06/06 11:32:18;;;;;;;74.43;32.43;;;16.80;98.70;;;;;;5029559;28;20473;-77
2021/06/06 11:35:07;;;;;;;76.40;34.30;;;16.90;98.50;;;;;;5030355;28;20767;-76
2021/06/06 11:37:41;;;;;;;91.53;38.23;;;16.80;98.30;;;;;;5027781;28;20428;-76
2021/06/06 11:40:23;;;;;;;106.13;40.33;;;16.70;98.50;;;;;;5031826;28;20450;-76
2021/06/06 11:42:50;;;;;;;102.80;38.90;;;16.30;99.30;;;;;;5038452;28;20965;-77
2021/06/06 11:45:18;;;;;;;109.67;42.00;;;16.20;99.90;;;;;;5039434;28;20427;-77
2021/06/06 11:47:50;;;;;;;100.90;40.97;;;16.30;99.90;;;;;;5036116;28;20835;-77
2021/06/06 11:50:35;;;;;;;110.73;40.60;;;16.20;99.90;;;;;;5034522;28;20427;-76
2021/06/06 11:53:26;;;;;;;90.90;37.43;;;16.30;99.90;;;;;;5025234;28;20463;-79
2021/06/06 11:55:56;;;;;;;108.67;41.00;;;16.40;99.90;;;;;;5034032;28;20417;-78
2021/06/06 11:58:26;;;;;;;94.50;38.87;;;16.30;99.90;;;;;;5033552;28;20416;-77
2021/06/06 12:00:54;;;;;;;96.97;39.63;;;16.40;99.90;;;;;;5031097;28;20420;-76
2021/06/06 12:03:39;;;;;;;83.53;35.03;;;16.30;99.90;;;;;;5032736;28;20451;-76
2021/06/06 12:06:09;;;;;;;92.77;35.57;;;16.50;99.90;;;;;;5029322;28;20452;-76
2021/06/06 12:08:41;;;;;;;79.87;33.70;;;16.60;99.70;;;;;;5033320;28;20447;-76
2021/06/06 12:11:21;;;;;;;87.90;34.97;;;16.70;99.30;;;;;;5032978;28;20419;-76
2021/06/06 12:13:49;;;;;;;78.33;34.60;;;16.80;99.00;;;;;;5031333;28;20471;-75
2021/06/06 12:16:21;;;;;;;76.17;35.43;;;16.70;98.80;;;;;;5031519;28;20506;-75
2021/06/06 12:19:02;;;;;;;68.20;31.67;;;16.40;99.20;;;;;;5032387;28;21161;-77
2021/06/06 12:21:30;;;;;;;73.47;30.33;;;16.50;99.70;;;;;;5025984;28;20424;-76
2021/06/06 12:24:05;;;;;;;70.50;32.07;;;16.70;99.90;;;;;;5031456;28;20940;-76
2021/06/06 12:26:39;;;;;;;74.70;31.50;;;16.90;99.70;;;;;;5032346;28;21308;-76
2021/06/06 12:29:05;;;;;;;61.17;28.70;;;17.00;99.10;;;;;;5031270;28;20940;-76
2021/06/06 12:31:35;;;;;;;59.80;27.40;;;17.00;98.70;;;;;;5029301;28;20470;-76
2021/06/06 12:34:14;;;;;;;66.53;28.07;;;17.20;98.70;;;;;;5029842;28;20207;-77
2021/06/06 12:36:40;;;;;;;65.63;30.43;;;17.30;98.40;;;;;;5029684;28;21046;-76
2021/06/06 12:39:09;;;;;;;69.77;31.37;;;17.40;98.20;;;;;;5023055;28;20423;-76
2021/06/06 12:41:39;;;;;;;68.13;31.77;;;17.30;97.90;;;;;;5021761;28;20452;-76
2021/06/06 12:44:08;;;;;;;66.20;28.53;;;17.20;97.80;;;;;;5030014;28;20425;-77
2021/06/06 12:46:44;;;;;;;62.53;28.20;;;16.80;98.20;;;;;;5029968;28;20434;-76
2021/06/06 12:49:12;;;;;;;65.60;27.20;;;16.90;98.90;;;;;;5031217;28;20447;-77
2021/06/06 12:51:42;;;;;;;67.00;28.20;;;17.00;98.60;;;;;;5031045;28;20430;-78
2021/06/06 12:54:16;;;;;;;64.80;27.77;;;17.00;98.70;;;;;;5030573;28;20470;-77